Time;durP1;ratioP1;P1;durP2;ratioP2;P2;SDS_P1;SDS_P2;PMS_P1;PMS_P2;Temp;Humidity;BMP_temperature;BMP_pressure;BME280_temperature;BME280_humidity;BME280_pressure;Samples;Min_cycle;Max_cycle;Signal;HPM_P1;HPM_P2
2021/01/27 00:00:34;;;;;;;5.35;2.40;;;1.00;71.50;;;;;;5030847;28;20088;-76
2021/01/27 00:03:01;;;;;;;6.82;2.55;;;1.00;71.40;;;;;;5047174;28;20049;-75
2021/01/27 00:05:33;;;;;;;5.95;2.65;;;1.00;71.40;;;;;;5030889;28;20030;-76
2021/01/27 00:07:59;;;;;;;9.50;2.78;;;1.00;71.50;;;;;;5051152;28;20029;-74
2021/01/27 00:10:28;;;;;;;7.13;2.88;;;1.00;71.70;;;;;;5051007;28;20465;-74
2021/01/27 00:12:54;;;;;;;4.72;2.50;;;1.00;71.70;;;;;;5050911;28;20022;-74
2021/01/27 00:15:27;;;;;;;4.35;2.17;;;0.90;71.80;;;;;;5034185;28;20029;-75
2021/01/27 00:17:52;;;;;;;7.68;1.98;;;0.90;71.80;;;;;;5034327;28;20033;-76
2021/01/27 00:20:20;;;;;;;4.57;1.90;;;1.00;71.60;;;;;;5050638;28;20033;-75
2021/01/27 00:22:46;;;;;;;5.70;2.20;;;1.00;71.40;;;;;;5034385;28;20040;-75
2021/01/27 00:25:14;;;;;;;4.50;2.42;;;1.00;71.10;;;;;;5050383;28;20021;-75
2021/01/27 00:27:39;;;;;;;4.53;2.40;;;1.00;71.00;;;;;;5050369;28;20029;-74
2021/01/27 00:30:33;;;;;;;5.88;2.50;;;1.00;71.80;;;;;;5050628;28;20116;-75
2021/01/27 00:33:00;;;;;;;4.30;2.38;;;1.00;70.80;;;;;;5031875;28;20052;-74
2021/01/27 00:35:29;;;;;;;4.78;2.72;;;0.90;71.10;;;;;;5050171;28;20030;-74
2021/01/27 00:37:56;;;;;;;6.95;3.17;;;0.80;71.40;;;;;;5051422;28;20119;-78
2021/01/27 00:40:22;;;;;;;7.20;3.53;;;0.80;71.80;;;;;;5053862;28;20045;-76
2021/01/27 00:42:50;;;;;;;6.80;2.80;;;0.80;72.00;;;;;;5073918;28;20029;-79
2021/01/27 00:45:17;;;;;;;4.93;2.92;;;0.70;72.20;;;;;;5051884;28;20040;-76
2021/01/27 00:47:42;;;;;;;4.07;2.40;;;0.60;72.30;;;;;;5050240;28;20382;-76
2021/01/27 00:50:09;;;;;;;6.60;2.33;;;0.60;72.70;;;;;;5033611;28;20025;-77
2021/01/27 00:52:34;;;;;;;4.47;2.65;;;0.50;73.00;;;;;;5049830;28;20036;-76
2021/01/27 00:55:00;;;;;;;5.03;2.70;;;0.40;74.10;;;;;;5034686;28;20022;-76
2021/01/27 00:57:26;;;;;;;8.60;3.28;;;0.30;73.70;;;;;;5050391;28;20159;-78
2021/01/27 00:59:52;;;;;;;6.13;2.85;;;0.20;74.10;;;;;;5033332;28;20076;-77
2021/01/27 01:02:17;;;;;;;4.78;2.70;;;0.10;74.40;;;;;;5049608;28;20128;-76
2021/01/27 01:04:43;;;;;;;4.20;2.75;;;0.10;74.70;;;;;;5033261;28;20030;-77
2021/01/27 01:07:09;;;;;;;5.70;2.92;;;0.10;75.10;;;;;;5049540;28;20025;-76
2021/01/27 01:09:34;;;;;;;7.72;2.97;;;0.10;75.60;;;;;;5034773;28;20025;-77
2021/01/27 01:12:00;;;;;;;4.00;2.50;;;0.10;75.80;;;;;;5033426;28;20108;-77
2021/01/27 01:14:26;;;;;;;2.63;2.08;;;0.10;76.00;;;;;;5033269;28;20038;-77
2021/01/27 01:16:52;;;;;;;4.22;2.42;;;0.00;76.00;;;;;;5049387;28;20124;-77
2021/01/27 01:19:18;;;;;;;5.40;2.75;;;0.00;76.00;;;;;;5048940;28;20072;-77
2021/01/27 01:21:44;;;;;;;3.70;2.10;;;0.00;76.10;;;;;;5049982;28;20060;-76
2021/01/27 01:24:10;;;;;;;4.75;2.20;;;0.00;75.90;;;;;;5049520;28;20033;-76
2021/01/27 01:26:36;;;;;;;4.13;2.10;;;0.10;75.70;;;;;;5049508;28;20029;-76
2021/01/27 01:29:03;;;;;;;6.82;2.17;;;0.10;75.40;;;;;;5034194;28;20051;-78
2021/01/27 01:31:28;;;;;;;2.70;1.65;;;0.10;75.20;;;;;;5032904;28;20030;-77
2021/01/27 01:33:54;;;;;;;3.22;2.20;;;0.10;75.00;;;;;;5049671;28;20036;-75
2021/01/27 01:36:20;;;;;;;4.05;1.98;;;0.20;74.70;;;;;;5049160;28;20044;-75
2021/01/27 01:38:45;;;;;;;4.47;2.33;;;0.20;74.50;;;;;;5032725;28;20083;-76
2021/01/27 01:41:11;;;;;;;3.90;2.42;;;0.20;74.30;;;;;;5033750;28;20038;-75
2021/01/27 01:43:40;;;;;;;3.58;2.15;;;0.20;74.10;;;;;;5048465;28;20040;-75
2021/01/27 01:46:17;;;;;;;7.32;2.42;;;0.20;74.10;;;;;;5032692;28;20053;-75
2021/01/27 01:48:45;;;;;;;3.85;2.53;;;0.20;74.10;;;;;;5032859;28;20030;-76
2021/01/27 01:51:35;;;;;;;6.53;2.47;;;0.30;74.20;;;;;;5049261;28;20156;-76
2021/01/27 01:54:12;;;;;;;6.88;2.45;;;0.30;74.30;;;;;;5032653;28;20021;-77
2021/01/27 01:56:43;;;;;;;6.20;2.53;;;0.30;74.40;;;;;;5033866;28;20037;-77
2021/01/27 01:59:12;;;;;;;4.63;2.13;;;0.40;74.40;;;;;;5048839;28;20535;-79
2021/01/27 02:01:42;;;;;;;4.53;2.72;;;0.40;74.40;;;;;;5032874;28;20034;-76
2021/01/27 02:04:08;;;;;;;3.58;2.33;;;0.40;74.50;;;;;;5032364;28;20041;-79
2021/01/27 02:06:35;;;;;;;3.90;2.33;;;0.40;74.20;;;;;;5048913;28;20120;-77
2021/01/27 02:09:03;;;;;;;5.13;2.65;;;0.40;74.10;;;;;;5032546;28;20405;-77
2021/01/27 02:11:41;;;;;;;5.20;3.13;;;0.50;74.90;;;;;;5031866;28;20470;-76
2021/01/27 02:14:39;;;;;;;5.45;3.10;;;0.50;74.00;;;;;;5032226;28;20033;-76
2021/01/27 02:17:18;;;;;;;4.30;2.22;;;0.50;73.80;;;;;;5032237;28;20049;-78
2021/01/27 02:20:02;;;;;;;4.20;2.45;;;0.50;73.60;;;;;;5034974;28;20083;-78
2021/01/27 02:22:59;;;;;;;7.07;2.90;;;0.50;73.40;;;;;;5038190;28;20428;-79
2021/01/27 02:26:09;;;;;;;5.78;3.05;;;0.40;73.40;;;;;;5037712;28;20075;-79
2021/01/27 02:29:08;;;;;;;5.72;2.60;;;0.40;73.60;;;;;;5033309;28;20026;-79
2021/01/27 02:31:42;;;;;;;6.18;2.63;;;0.30;73.70;;;;;;5032130;28;20029;-79
2021/01/27 02:34:38;;;;;;;7.53;2.92;;;0.30;73.70;;;;;;5033416;28;20025;-79
2021/01/27 02:37:07;;;;;;;6.47;2.60;;;0.30;73.90;;;;;;5021356;28;20141;-79
2021/01/27 02:39:41;;;;;;;6.32;3.03;;;0.30;73.90;;;;;;5048631;28;20386;-78
2021/01/27 02:42:22;;;;;;;4.72;2.70;;;0.20;73.70;;;;;;5032074;28;20120;-78
2021/01/27 02:44:59;;;;;;;4.60;2.72;;;0.20;73.80;;;;;;5047972;28;20061;-78
2021/01/27 02:47:31;;;;;;;6.40;2.30;;;0.20;73.90;;;;;;5031592;28;20026;-78
2021/01/27 02:50:01;;;;;;;3.15;2.10;;;0.20;73.90;;;;;;5033066;28;20022;-77
2021/01/27 02:52:39;;;;;;;6.53;2.17;;;0.10;73.90;;;;;;5031852;28;20091;-78
2021/01/27 02:55:22;;;;;;;3.10;1.88;;;0.10;73.80;;;;;;5032925;28;20169;-78
2021/01/27 02:58:14;;;;;;;6.25;3.00;;;0.00;73.70;;;;;;5048345;28;20056;-79
2021/01/27 03:00:47;;;;;;;6.43;2.63;;;0.00;73.80;;;;;;5032947;28;20072;-80
2021/01/27 03:03:31;;;;;;;5.35;3.65;;;-0.10;73.90;;;;;;5031750;28;20042;-77
2021/01/27 03:06:01;;;;;;;4.80;2.75;;;-0.10;73.90;;;;;;5015264;28;20389;-77
2021/01/27 03:08:33;;;;;;;4.22;2.72;;;-0.20;73.90;;;;;;5048351;28;20021;-77
2021/01/27 03:11:20;;;;;;;8.85;3.80;;;-0.30;74.10;;;;;;5031640;28;20500;-78
2021/01/27 03:13:47;;;;;;;5.60;3.00;;;-0.20;74.00;;;;;;5048700;28;20485;-79
2021/01/27 03:16:18;;;;;;;7.00;3.50;;;-0.30;74.10;;;;;;5048631;28;20137;-79
2021/01/27 03:18:49;;;;;;;6.50;3.00;;;-0.30;74.50;;;;;;5034032;28;20043;-79
2021/01/27 03:21:23;;;;;;;8.27;3.42;;;-0.40;74.60;;;;;;5031898;28;20026;-77
2021/01/27 03:23:53;;;;;;;6.70;2.08;;;-0.30;74.80;;;;;;5032350;28;20112;-78
2021/01/27 03:26:21;;;;;;;3.30;2.58;;;-0.40;74.70;;;;;;5048789;28;20076;-78
2021/01/27 03:29:04;;;;;;;5.50;2.42;;;-0.30;74.80;;;;;;5033670;28;20022;-79
2021/01/27 03:31:35;;;;;;;4.75;2.33;;;-0.30;74.80;;;;;;5035269;28;20087;-79
2021/01/27 03:34:09;;;;;;;4.55;2.08;;;-0.30;74.80;;;;;;5048655;28;20104;-78
2021/01/27 03:36:43;;;;;;;4.57;2.08;;;-0.30;74.80;;;;;;5049603;28;20039;-79
2021/01/27 03:39:11;;;;;;;3.58;2.33;;;-0.30;74.90;;;;;;5031399;28;20036;-78
2021/01/27 03:41:52;;;;;;;5.03;2.20;;;-0.30;74.90;;;;;;5049503;28;20030;-79
2021/01/27 03:44:22;;;;;;;6.88;2.92;;;-0.20;74.90;;;;;;5051715;28;20136;-79
2021/01/27 03:47:02;;;;;;;7.45;3.28;;;-0.20;74.70;;;;;;5035191;28;20026;-75
2021/01/27 03:49:58;;;;;;;3.70;2.50;;;-0.20;74.70;;;;;;5036294;28;20037;-74
2021/01/27 03:52:41;;;;;;;;;;;-0.20;74.60;;;;;;5034910;28;20042;-75
2021/01/27 03:55:22;;;;;;;5.32;2.85;;;-0.10;74.50;;;;;;5034713;28;19928;-78
2021/01/27 03:58:00;;;;;;;7.80;3.10;;;-0.10;74.00;;;;;;5036120;28;20029;-79
2021/01/27 04:00:31;;;;;;;5.57;2.90;;;-0.20;73.70;;;;;;5051121;28;20029;-77
2021/01/27 04:03:18;;;;;;;7.82;4.10;;;-0.30;73.90;;;;;;5051310;28;20049;-77
2021/01/27 04:05:44;;;;;;;6.75;3.50;;;-0.40;74.20;;;;;;5051261;28;20024;-77
2021/01/27 04:08:09;;;;;;;8.77;3.80;;;-0.30;74.40;;;;;;5050760;28;20033;-78
2021/01/27 04:10:36;;;;;;;8.00;4.10;;;-0.40;74.10;;;;;;5034591;28;20292;-77
2021/01/27 04:13:02;;;;;;;7.40;3.70;;;-0.30;74.20;;;;;;5035658;28;20482;-77
2021/01/27 04:15:27;;;;;;;7.15;3.35;;;-0.30;74.10;;;;;;5034473;28;20034;-77
2021/01/27 04:17:53;;;;;;;5.55;3.38;;;-0.30;74.00;;;;;;5051204;28;20025;-77
2021/01/27 04:20:19;;;;;;;5.68;3.33;;;-0.30;74.00;;;;;;5050745;28;20116;-77
2021/01/27 04:22:46;;;;;;;5.65;3.30;;;-0.40;74.00;;;;;;5034578;28;20026;-77
2021/01/27 04:25:13;;;;;;;8.68;3.78;;;-0.40;74.30;;;;;;5050851;28;20367;-78
2021/01/27 04:27:39;;;;;;;8.50;3.83;;;-0.30;74.40;;;;;;5051032;28;20029;-77
2021/01/27 04:30:08;;;;;;;7.22;3.08;;;-0.40;74.30;;;;;;5050626;28;20026;-78
2021/01/27 04:32:34;;;;;;;4.25;2.83;;;-0.30;74.50;;;;;;5050815;28;20382;-77
2021/01/27 04:34:59;;;;;;;10.52;3.00;;;-0.30;74.40;;;;;;5035159;28;20112;-77
2021/01/27 04:37:25;;;;;;;7.95;2.97;;;-0.30;74.30;;;;;;5034135;28;20091;-77
2021/01/27 04:39:52;;;;;;;5.65;3.22;;;-0.30;74.40;;;;;;5034209;28;20021;-77
2021/01/27 04:42:26;;;;;;;4.72;2.97;;;-0.30;74.10;;;;;;5017952;28;20041;-76
2021/01/27 04:44:54;;;;;;;4.93;2.67;;;-0.30;74.20;;;;;;5054609;28;20018;-76
2021/01/27 04:47:31;;;;;;;8.48;3.00;;;-0.20;74.00;;;;;;5057980;28;20417;-76
2021/01/27 04:50:04;;;;;;;6.93;3.97;;;-0.20;74.60;;;;;;5050339;28;20112;-76
2021/01/27 04:52:52;;;;;;;6.07;3.75;;;-0.20;73.50;;;;;;5033516;28;20079;-76
2021/01/27 04:55:37;;;;;;;5.07;2.80;;;-0.10;73.60;;;;;;5050174;28;20061;-74
2021/01/27 04:58:18;;;;;;;5.68;3.03;;;0.00;73.30;;;;;;5033700;28;20029;-75
2021/01/27 05:00:50;;;;;;;4.97;2.38;;;0.00;72.70;;;;;;5034938;28;20029;-75
2021/01/27 05:03:35;;;;;;;7.78;2.78;;;0.10;72.20;;;;;;5034677;28;20405;-77
2021/01/27 05:06:04;;;;;;;3.45;1.80;;;0.10;71.80;;;;;;5033658;28;20242;-76
2021/01/27 05:08:42;;;;;;;3.58;1.88;;;0.20;71.20;;;;;;5050161;28;20021;-76
2021/01/27 05:11:10;;;;;;;5.65;1.95;;;0.30;70.50;;;;;;5033104;28;20108;-76
2021/01/27 05:13:40;;;;;;;4.43;2.08;;;0.30;69.70;;;;;;5049987;28;20517;-76
2021/01/27 05:16:18;;;;;;;4.05;2.22;;;0.30;69.20;;;;;;5033197;28;20048;-76
2021/01/27 05:18:45;;;;;;;4.78;1.88;;;0.40;69.10;;;;;;5049957;28;20108;-75
2021/01/27 05:21:29;;;;;;;4.75;1.80;;;0.40;68.90;;;;;;5034456;28;20021;-75
2021/01/27 05:23:55;;;;;;;4.55;2.08;;;0.40;68.80;;;;;;5033302;28;20022;-76
2021/01/27 05:26:28;;;;;;;2.40;1.38;;;0.50;68.40;;;;;;5049521;28;20037;-75
2021/01/27 05:29:04;;;;;;;3.92;1.70;;;0.50;67.90;;;;;;5034335;28;20528;-76
2021/01/27 05:32:18;;;;;;;2.47;1.15;;;0.50;67.50;;;;;;5033042;28;20037;-75
2021/01/27 05:34:48;;;;;;;4.93;1.70;;;0.60;67.10;;;;;;5020013;28;20032;-75
2021/01/27 05:37:18;;;;;;;4.68;2.45;;;0.60;66.10;;;;;;5048294;28;20033;-75
2021/01/27 05:39:46;;;;;;;3.55;1.67;;;0.60;65.40;;;;;;5032569;28;20013;-76
2021/01/27 05:42:28;;;;;;;4.68;1.90;;;0.70;64.90;;;;;;5032447;28;20033;-76
2021/01/27 05:44:58;;;;;;;4.65;1.77;;;0.70;64.20;;;;;;5032868;28;20028;-76
2021/01/27 05:47:38;;;;;;;2.10;1.23;;;0.70;64.00;;;;;;5049306;28;20021;-76
2021/01/27 05:50:33;;;;;;;2.75;1.00;;;0.70;63.90;;;;;;5049403;28;20017;-76
2021/01/27 05:53:23;;;;;;;2.13;1.00;;;0.70;63.40;;;;;;5049299;28;20029;-76
2021/01/27 05:56:12;;;;;;;2.25;0.88;;;0.70;63.00;;;;;;5044705;28;20060;-76
2021/01/27 05:58:41;;;;;;;2.40;1.20;;;0.70;62.50;;;;;;5049235;28;20030;-76
2021/01/27 06:01:26;;;;;;;3.22;1.20;;;0.70;62.20;;;;;;5035061;28;20025;-77
2021/01/27 06:04:09;;;;;;;2.73;1.50;;;0.80;61.80;;;;;;5036722;28;20045;-76
2021/01/27 06:06:44;;;;;;;4.57;1.67;;;0.80;61.40;;;;;;5034485;28;20071;-76
2021/01/27 06:09:11;;;;;;;4.30;1.55;;;0.90;61.20;;;;;;5034671;28;20466;-76
2021/01/27 06:11:39;;;;;;;4.30;1.92;;;0.90;58.80;;;;;;5049071;28;20100;-75
2021/01/27 06:14:17;;;;;;;3.03;1.80;;;0.90;57.80;;;;;;5048721;28;20032;-76
2021/01/27 06:16:45;;;;;;;2.80;1.65;;;0.90;57.40;;;;;;5032470;28;20047;-76
2021/01/27 06:19:12;;;;;;;4.82;1.85;;;1.00;56.50;;;;;;5048606;28;20021;-76
2021/01/27 06:22:04;;;;;;;2.17;1.25;;;1.00;55.30;;;;;;5048733;28;20049;-76
2021/01/27 06:25:07;;;;;;;3.53;0.90;;;1.00;54.90;;;;;;5033284;28;20021;-75
2021/01/27 06:28:21;;;;;;;4.38;1.50;;;1.00;54.60;;;;;;5031789;28;20032;-76
2021/01/27 06:31:45;;;;;;;3.50;1.65;;;0.90;55.00;;;;;;4975463;28;20026;-76
2021/01/27 06:34:33;;;;;;;10.10;4.05;;;0.80;55.10;;;;;;4933753;29;20059;-78
2021/01/27 06:37:09;;;;;;;9.90;3.83;;;0.80;55.30;;;;;;4971879;28;20042;-78
2021/01/27 06:40:02;;;;;;;11.00;5.00;;;0.80;55.60;;;;;;4975031;28;20026;-76
2021/01/27 06:42:47;;;;;;;9.07;4.72;;;0.80;56.10;;;;;;5008913;28;20055;-76
2021/01/27 06:45:23;;;;;;;7.30;3.05;;;0.80;56.60;;;;;;5031656;28;20032;-76
2021/01/27 06:48:18;;;;;;;6.25;1.50;;;0.70;56.90;;;;;;5048168;28;20021;-78
2021/01/27 06:51:10;;;;;;;3.05;1.73;;;0.60;57.50;;;;;;5033125;28;20052;-78
2021/01/27 06:53:42;;;;;;;2.03;1.30;;;0.50;58.40;;;;;;5033349;28;20083;-78
2021/01/27 06:56:29;;;;;;;3.60;1.70;;;0.40;59.40;;;;;;5031480;28;20395;-77
2021/01/27 06:59:33;;;;;;;4.90;1.38;;;0.40;60.40;;;;;;5031560;28;20021;-78
2021/01/27 07:02:20;;;;;;;5.50;1.23;;;0.30;61.40;;;;;;5031139;28;20032;-78
2021/01/27 07:05:04;;;;;;;3.40;1.60;;;0.30;62.50;;;;;;5048100;28;20469;-78
2021/01/27 07:07:54;;;;;;;3.65;2.03;;;0.20;63.30;;;;;;5031660;28;20034;-78
2021/01/27 07:10:45;;;;;;;3.67;1.02;;;0.20;64.30;;;;;;5031284;28;20109;-75
2021/01/27 07:13:40;;;;;;;2.13;1.52;;;0.20;65.60;;;;;;5047603;28;20026;-77
2021/01/27 07:16:17;;;;;;;2.95;1.58;;;0.20;66.70;;;;;;5032537;28;20320;-77
2021/01/27 07:19:15;;;;;;;5.75;1.40;;;0.10;67.20;;;;;;5051987;28;20089;-75
2021/01/27 07:22:21;;;;;;;2.35;1.30;;;0.10;67.70;;;;;;5034196;28;20060;-77
2021/01/27 07:25:01;;;;;;;3.65;1.20;;;0.10;68.00;;;;;;5051108;28;20022;-78
2021/01/27 07:27:31;;;;;;;2.85;1.35;;;0.20;68.20;;;;;;5035136;28;20025;-78
2021/01/27 07:30:03;;;;;;;2.95;1.48;;;0.30;68.50;;;;;;5035549;28;20044;-79
2021/01/27 07:32:38;;;;;;;4.80;1.77;;;0.30;68.40;;;;;;5034994;28;20026;-78
2021/01/27 07:35:10;;;;;;;5.25;1.65;;;0.30;68.70;;;;;;5034953;28;20083;-77
2021/01/27 07:37:48;;;;;;;2.63;1.60;;;0.40;68.80;;;;;;5051608;28;20057;-77
2021/01/27 07:40:38;;;;;;;3.90;1.73;;;0.50;69.00;;;;;;5034885;28;20108;-77
2021/01/27 07:43:28;;;;;;;4.25;1.98;;;0.60;69.00;;;;;;5036116;28;20026;-77
2021/01/27 07:45:55;;;;;;;2.70;1.00;;;0.70;69.30;;;;;;5051225;28;20022;-77
2021/01/27 07:48:24;;;;;;;3.22;1.45;;;0.60;69.10;;;;;;5051177;28;20335;-77
2021/01/27 07:51:03;;;;;;;1.25;0.85;;;0.50;69.50;;;;;;5034917;28;20017;-75
2021/01/27 07:53:34;;;;;;;2.85;1.65;;;0.30;69.80;;;;;;5046767;28;20029;-75
2021/01/27 07:56:36;;;;;;;3.55;2.00;;;0.30;70.00;;;;;;5034447;28;20026;-78
2021/01/27 07:59:19;;;;;;;2.92;1.25;;;0.40;70.30;;;;;;5027877;28;20057;-77
2021/01/27 08:02:04;;;;;;;2.17;1.23;;;0.30;70.00;;;;;;5033665;28;20044;-77
2021/01/27 08:04:48;;;;;;;3.28;1.67;;;0.30;69.30;;;;;;5050320;28;20116;-78
2021/01/27 08:07:34;;;;;;;2.50;1.42;;;0.30;69.10;;;;;;5034054;28;20025;-77
2021/01/27 08:10:06;;;;;;;;;;;0.10;69.40;;;;;;5034682;28;20561;-77
2021/01/27 08:12:40;;;;;;;7.28;2.15;;;0.20;69.40;;;;;;5034282;28;19955;-77
2021/01/27 08:15:08;;;;;;;3.53;1.70;;;0.50;70.90;;;;;;5050514;28;20513;-79
2021/01/27 08:17:55;;;;;;;4.05;1.85;;;0.70;69.90;;;;;;5035064;28;20460;-77
2021/01/27 08:20:34;;;;;;;4.88;1.50;;;1.00;69.10;;;;;;5034010;28;20048;-77
2021/01/27 08:22:59;;;;;;;3.88;1.75;;;1.20;68.80;;;;;;5050645;28;20060;-76
2021/01/27 08:25:47;;;;;;;4.10;1.80;;;1.70;68.50;;;;;;5033941;28;20124;-75
2021/01/27 08:28:41;;;;;;;4.45;1.77;;;1.70;66.30;;;;;;5033284;28;20481;-77
2021/01/27 08:31:10;;;;;;;7.03;2.05;;;1.60;65.50;;;;;;5035205;28;20103;-77
2021/01/27 08:33:47;;;;;;;4.75;1.90;;;1.80;67.60;;;;;;5033740;28;20059;-78
2021/01/27 08:36:28;;;;;;;5.38;2.20;;;2.10;68.90;;;;;;5033836;28;20040;-77
2021/01/27 08:38:57;;;;;;;4.22;1.80;;;2.30;68.80;;;;;;5034129;28;20017;-77
2021/01/27 08:41:56;;;;;;;4.40;2.13;;;2.20;67.00;;;;;;5033614;28;20026;-77
2021/01/27 08:44:22;;;;;;;7.13;3.72;;;2.30;67.30;;;;;;5050089;28;20122;-76
2021/01/27 08:46:56;;;;;;;8.27;3.97;;;1.90;67.00;;;;;;5033577;28;20116;-76
2021/01/27 08:49:37;;;;;;;8.52;3.53;;;1.70;68.00;;;;;;5050133;28;20025;-77
2021/01/27 08:52:09;;;;;;;10.00;3.80;;;1.50;69.40;;;;;;5034756;28;20100;-78
2021/01/27 08:54:37;;;;;;;3.30;2.17;;;1.40;70.30;;;;;;5034835;28;20028;-77
2021/01/27 08:57:21;;;;;;;5.53;2.75;;;1.30;71.30;;;;;;5033235;28;20087;-77
2021/01/27 09:00:13;;;;;;;4.00;2.28;;;1.20;72.10;;;;;;5033357;28;20029;-74
2021/01/27 09:02:50;;;;;;;3.20;2.30;;;1.00;73.60;;;;;;5033352;28;20140;-75
2021/01/27 09:05:22;;;;;;;4.07;2.08;;;0.80;74.90;;;;;;5033288;28;20021;-77
2021/01/27 09:08:01;;;;;;;5.38;2.40;;;0.70;75.70;;;;;;5033352;28;20494;-77
2021/01/27 09:10:36;;;;;;;5.55;3.05;;;0.50;76.50;;;;;;5033292;28;20401;-76
2021/01/27 09:13:23;;;;;;;6.28;2.75;;;0.50;77.00;;;;;;5049707;28;20112;-75
2021/01/27 09:16:13;;;;;;;9.52;3.80;;;0.30;77.40;;;;;;5033045;28;20458;-78
2021/01/27 09:18:40;;;;;;;6.28;2.22;;;0.20;77.80;;;;;;5034348;28;20021;-77
2021/01/27 09:21:26;;;;;;;6.82;2.88;;;0.20;78.00;;;;;;5049537;28;20052;-77
2021/01/27 09:24:03;;;;;;;;;;;0.10;78.10;;;;;;5034233;28;20390;-76
2021/01/27 09:26:50;;;;;;;4.70;2.60;;;0.10;79.10;;;;;;5032619;28;19936;-76
2021/01/27 09:29:29;;;;;;;6.88;2.95;;;0.10;79.90;;;;;;5049376;28;20033;-76
2021/01/27 09:31:57;;;;;;;5.28;2.70;;;0.10;80.00;;;;;;5049204;28;20125;-76
2021/01/27 09:34:31;;;;;;;10.20;3.42;;;0.10;79.70;;;;;;5033921;28;20014;-76
2021/01/27 09:37:04;;;;;;;4.32;2.85;;;0.20;80.10;;;;;;5049243;28;20075;-76
2021/01/27 09:39:33;;;;;;;6.10;2.92;;;0.20;79.60;;;;;;5048233;28;20490;-76
2021/01/27 09:42:03;;;;;;;6.05;2.55;;;0.30;79.30;;;;;;5048713;28;20029;-76
2021/01/27 09:44:36;;;;;;;5.85;2.58;;;0.40;79.30;;;;;;5032472;28;20164;-76
2021/01/27 09:47:13;;;;;;;5.53;2.60;;;0.30;79.80;;;;;;5033567;28;20030;-76
2021/01/27 09:49:50;;;;;;;3.97;2.60;;;0.30;79.20;;;;;;5032707;28;20033;-75
2021/01/27 09:52:17;;;;;;;4.60;2.47;;;0.40;79.10;;;;;;5048963;28;20033;-76
2021/01/27 09:54:47;;;;;;;6.15;2.50;;;0.40;79.30;;;;;;5048918;28;20056;-76
2021/01/27 09:57:15;;;;;;;4.38;2.50;;;0.50;79.30;;;;;;5032171;28;20034;-77
2021/01/27 09:59:41;;;;;;;7.82;3.15;;;0.40;78.90;;;;;;5048736;28;20036;-76
2021/01/27 10:02:11;;;;;;;7.10;3.15;;;0.50;78.70;;;;;;5015498;28;20045;-76
2021/01/27 10:04:39;;;;;;;3.60;2.60;;;0.60;78.60;;;;;;5032278;28;20474;-76
2021/01/27 10:07:34;;;;;;;7.80;3.00;;;0.60;78.30;;;;;;5033127;28;20029;-76
2021/01/27 10:10:20;;;;;;;5.20;2.80;;;0.50;77.80;;;;;;5031880;28;20109;-77
2021/01/27 10:12:47;;;;;;;5.20;2.38;;;0.50;77.70;;;;;;5032289;28;20029;-77
2021/01/27 10:15:27;;;;;;;6.22;3.15;;;0.40;77.50;;;;;;5018841;28;20497;-77
2021/01/27 10:18:02;;;;;;;4.78;2.33;;;0.40;77.40;;;;;;5012223;28;20107;-77
2021/01/27 10:20:33;;;;;;;6.00;2.90;;;0.30;77.40;;;;;;5013673;28;20026;-75
2021/01/27 10:23:13;;;;;;;3.72;2.55;;;0.20;77.80;;;;;;5006275;28;20030;-75
2021/01/27 10:25:47;;;;;;;4.72;2.85;;;0.20;78.00;;;;;;5012029;28;20069;-77
2021/01/27 10:28:23;;;;;;;5.45;2.70;;;0.20;78.40;;;;;;5012037;28;20386;-74
2021/01/27 10:31:02;;;;;;;4.32;3.15;;;0.30;78.50;;;;;;5012256;28;20029;-75
2021/01/27 10:33:44;;;;;;;6.20;2.67;;;0.30;78.30;;;;;;4995967;28;20052;-76
2021/01/27 10:36:39;;;;;;;5.57;2.85;;;0.40;78.50;;;;;;5011793;28;20133;-75
2021/01/27 10:39:19;;;;;;;6.93;3.90;;;0.40;78.80;;;;;;4995349;28;20080;-75
2021/01/27 10:41:50;;;;;;;6.60;3.50;;;0.40;79.10;;;;;;5011906;28;20056;-77
2021/01/27 10:44:19;;;;;;;5.53;3.10;;;0.50;79.30;;;;;;4995876;28;20033;-75
2021/01/27 10:46:44;;;;;;;5.22;2.85;;;0.50;79.10;;;;;;5011887;28;20070;-76
2021/01/27 10:49:10;;;;;;;6.82;3.53;;;0.50;79.20;;;;;;5012050;28;20029;-76
2021/01/27 10:51:36;;;;;;;8.32;3.60;;;0.60;79.10;;;;;;5011318;28;20045;-77
2021/01/27 10:54:02;;;;;;;5.97;3.13;;;0.70;79.00;;;;;;5011581;28;20030;-77
2021/01/27 10:56:27;;;;;;;6.43;3.08;;;0.80;78.70;;;;;;5011672;28;20124;-77
2021/01/27 10:58:53;;;;;;;6.28;3.00;;;0.90;78.40;;;;;;5011455;28;20033;-77
2021/01/27 11:01:18;;;;;;;4.45;2.88;;;1.00;79.10;;;;;;5011322;28;20044;-77
2021/01/27 11:03:44;;;;;;;6.63;3.33;;;1.00;77.70;;;;;;5011233;28;20125;-77
2021/01/27 11:06:10;;;;;;;9.98;4.00;;;1.10;77.40;;;;;;5011432;28;20229;-75
2021/01/27 11:08:41;;;;;;;6.82;2.60;;;1.20;76.50;;;;;;5011754;28;20046;-75
2021/01/27 11:11:06;;;;;;;5.20;2.70;;;1.30;75.80;;;;;;5011370;28;20029;-77
2021/01/27 11:13:35;;;;;;;5.43;2.78;;;1.30;74.90;;;;;;5011170;28;20360;-77
2021/01/27 11:16:05;;;;;;;4.07;2.30;;;1.30;74.20;;;;;;5011406;28;20038;-77
2021/01/27 11:18:33;;;;;;;4.75;3.15;;;1.40;73.70;;;;;;4995350;28;20125;-76
2021/01/27 11:21:00;;;;;;;4.05;2.92;;;1.50;73.40;;;;;;5011250;28;20454;-76
2021/01/27 11:23:26;;;;;;;5.45;2.45;;;1.40;72.40;;;;;;5011161;28;20482;-76
2021/01/27 11:25:53;;;;;;;6.78;3.00;;;1.50;72.40;;;;;;5011046;28;20034;-74
2021/01/27 11:28:23;;;;;;;8.77;5.00;;;1.60;71.70;;;;;;5011378;28;20046;-75
2021/01/27 11:30:49;;;;;;;4.45;2.83;;;1.60;71.30;;;;;;5011511;28;20030;-74
2021/01/27 11:33:18;;;;;;;3.92;2.65;;;1.70;72.00;;;;;;5011411;28;20084;-76
2021/01/27 11:35:44;;;;;;;6.28;2.63;;;1.70;70.60;;;;;;5012998;28;20533;-76
2021/01/27 11:38:10;;;;;;;6.60;2.95;;;1.70;69.90;;;;;;5012796;28;20033;-75
2021/01/27 11:40:36;;;;;;;5.30;2.78;;;1.80;69.60;;;;;;5011288;28;20032;-76
2021/01/27 11:43:02;;;;;;;4.93;2.83;;;1.80;69.40;;;;;;5011190;28;20105;-75
2021/01/27 11:45:28;;;;;;;5.03;3.03;;;1.80;69.10;;;;;;5011331;28;20072;-77
2021/01/27 11:47:55;;;;;;;5.72;3.35;;;1.70;69.00;;;;;;5011062;28;20022;-75
2021/01/27 11:50:23;;;;;;;4.43;3.17;;;1.80;69.00;;;;;;5011341;28;20057;-75
2021/01/27 11:52:50;;;;;;;6.22;3.50;;;1.80;68.70;;;;;;5012679;28;20387;-76
2021/01/27 11:55:18;;;;;;;6.53;4.20;;;1.80;68.70;;;;;;5011223;28;20041;-77
2021/01/27 11:57:43;;;;;;;6.45;4.13;;;1.80;68.50;;;;;;5011413;28;20026;-76
2021/01/27 12:00:09;;;;;;;5.82;3.97;;;1.80;68.80;;;;;;5010899;28;20029;-77
2021/01/27 12:02:36;;;;;;;8.82;4.55;;;1.80;68.40;;;;;;5012383;28;20046;-77
2021/01/27 12:05:03;;;;;;;10.52;5.32;;;1.80;68.00;;;;;;5014789;28;20065;-77
2021/01/27 12:07:29;;;;;;;8.57;4.05;;;1.80;67.80;;;;;;5014981;28;20038;-77
2021/01/27 12:09:54;;;;;;;6.78;4.57;;;1.90;67.90;;;;;;5014642;28;20025;-76
2021/01/27 12:12:20;;;;;;;8.77;4.30;;;1.90;67.80;;;;;;5014414;28;20046;-76
2021/01/27 12:14:46;;;;;;;8.25;4.95;;;1.90;67.80;;;;;;5014885;28;20120;-76
2021/01/27 12:17:11;;;;;;;8.82;4.55;;;1.80;67.90;;;;;;5015762;28;20113;-77
2021/01/27 12:19:40;;;;;;;6.22;3.47;;;1.80;67.90;;;;;;5014520;28;20026;-77
2021/01/27 12:22:06;;;;;;;6.93;4.28;;;1.80;67.60;;;;;;5014605;28;20034;-77
2021/01/27 12:24:31;;;;;;;7.85;4.28;;;1.80;67.80;;;;;;5014376;28;20056;-77
2021/01/27 12:26:57;;;;;;;5.78;3.47;;;1.90;68.00;;;;;;5014228;28;20121;-77
2021/01/27 12:29:23;;;;;;;5.28;3.47;;;2.00;68.00;;;;;;5015299;28;20087;-77
2021/01/27 12:31:50;;;;;;;8.45;4.18;;;2.10;67.70;;;;;;5015932;28;20052;-74
2021/01/27 12:34:16;;;;;;;9.80;4.15;;;2.20;67.30;;;;;;5016406;28;20026;-76
2021/01/27 12:36:43;;;;;;;6.85;4.18;;;2.20;66.70;;;;;;5020932;28;20430;-75
2021/01/27 12:39:09;;;;;;;9.57;4.45;;;2.10;66.80;;;;;;5015738;28;20494;-76
2021/01/27 12:41:36;;;;;;;5.97;4.03;;;2.10;66.70;;;;;;5016346;28;20026;-77
2021/01/27 12:44:03;;;;;;;8.00;4.03;;;2.10;66.50;;;;;;5024178;28;20033;-77
2021/01/27 12:46:29;;;;;;;4.97;3.75;;;2.10;66.60;;;;;;5015565;28;20117;-77
2021/01/27 12:48:55;;;;;;;8.05;4.57;;;2.10;66.80;;;;;;5015144;28;20029;-76
2021/01/27 12:51:21;;;;;;;7.28;4.65;;;2.00;67.10;;;;;;5017508;28;20026;-77
2021/01/27 12:53:47;;;;;;;5.30;3.58;;;1.90;67.50;;;;;;5013459;28;20116;-76
2021/01/27 12:56:13;;;;;;;7.40;4.10;;;1.90;67.70;;;;;;5013368;28;20042;-75
2021/01/27 12:58:39;;;;;;;6.10;3.25;;;1.80;67.80;;;;;;5013758;28;20022;-76
2021/01/27 13:01:06;;;;;;;6.22;3.85;;;1.70;68.10;;;;;;5013321;28;20021;-75
2021/01/27 13:03:31;;;;;;;6.35;4.22;;;1.70;68.40;;;;;;5013230;28;20045;-76
2021/01/27 13:05:57;;;;;;;6.63;3.53;;;1.70;68.50;;;;;;5013569;28;20032;-76
2021/01/27 13:08:23;;;;;;;7.88;3.75;;;1.60;68.70;;;;;;5013464;28;20461;-77
2021/01/27 13:10:48;;;;;;;4.80;3.13;;;1.60;69.10;;;;;;5014721;28;20093;-76
2021/01/27 13:13:15;;;;;;;5.60;3.88;;;1.70;70.30;;;;;;5013294;28;20030;-76
2021/01/27 13:15:41;;;;;;;6.03;3.95;;;1.70;69.70;;;;;;5013398;28;20513;-75
2021/01/27 13:18:07;;;;;;;6.10;3.75;;;1.80;70.30;;;;;;5013258;28;20041;-75
2021/01/27 13:20:33;;;;;;;7.60;4.03;;;1.80;69.60;;;;;;5013330;28;20555;-80
2021/01/27 13:23:00;;;;;;;10.55;6.80;;;1.70;69.40;;;;;;5013265;28;20032;-80
2021/01/27 13:25:26;;;;;;;7.47;4.50;;;1.70;69.60;;;;;;5013184;28;20479;-76
2021/01/27 13:27:51;;;;;;;6.43;4.40;;;1.60;69.90;;;;;;5013246;28;20080;-78
2021/01/27 13:30:18;;;;;;;11.55;4.32;;;1.50;70.10;;;;;;5012998;28;20033;-76